Time;durP1;ratioP1;P1;durP2;ratioP2;P2;SDS_P1;SDS_P2;PMS_P1;PMS_P2;Temp;Humidity;BMP_temperature;BMP_pressure;BME280_temperature;BME280_humidity;BME280_pressure;Samples;Min_cycle;Max_cycle;Signal;HPM_P1;HPM_P2
2021/06/28 00:02:10;;;;;;;11.40;10.40;;;19.30;99.90;;;;;;5031940;28;20210;-66
2021/06/28 00:04:35;;;;;;;12.23;11.03;;;19.30;99.90;;;;;;5032177;28;20168;-66
2021/06/28 00:07:01;;;;;;;11.57;10.50;;;19.10;99.90;;;;;;5031750;28;20180;-65
2021/06/28 00:09:27;;;;;;;12.37;11.10;;;19.00;99.90;;;;;;5031541;28;20645;-64
2021/06/28 00:11:52;;;;;;;11.23;10.13;;;19.00;99.90;;;;;;5031599;28;20178;-64
2021/06/28 00:14:18;;;;;;;11.37;10.40;;;19.00;99.90;;;;;;5031448;28;20168;-64
2021/06/28 00:16:44;;;;;;;13.13;12.03;;;19.00;99.90;;;;;;5031298;28;20207;-65
2021/06/28 00:19:09;;;;;;;14.40;12.10;;;19.00;99.90;;;;;;5031439;28;20241;-65
2021/06/28 00:21:38;;;;;;;13.37;12.17;;;19.00;99.90;;;;;;5031213;28;20221;-64
2021/06/28 00:24:05;;;;;;;12.07;10.87;;;18.90;99.90;;;;;;5031307;28;20263;-64
2021/06/28 00:26:31;;;;;;;11.67;10.57;;;19.00;99.90;;;;;;5031232;28;20285;-64
2021/06/28 00:28:56;;;;;;;11.93;10.83;;;19.10;99.90;;;;;;5031291;28;20196;-65
2021/06/28 00:31:22;;;;;;;11.80;10.80;;;19.20;99.90;;;;;;5031367;28;20524;-64
2021/06/28 00:33:48;;;;;;;13.53;12.13;;;19.10;99.90;;;;;;5031214;28;20183;-64
2021/06/28 00:36:13;;;;;;;13.07;11.77;;;19.10;99.90;;;;;;5031031;28;20226;-65
2021/06/28 00:38:39;;;;;;;13.50;10.77;;;19.00;99.90;;;;;;5031385;28;20198;-65
2021/06/28 00:41:05;;;;;;;11.00;10.03;;;18.90;99.90;;;;;;5031395;28;20168;-66
2021/06/28 00:43:30;;;;;;;11.07;10.07;;;18.90;99.90;;;;;;5031330;28;20175;-65
2021/06/28 00:45:56;;;;;;;11.73;10.63;;;18.90;99.90;;;;;;5030893;28;20184;-65
2021/06/28 00:48:22;;;;;;;11.20;10.30;;;18.80;99.90;;;;;;5030935;28;20214;-65
2021/06/28 00:50:50;;;;;;;11.43;10.47;;;18.90;99.90;;;;;;5031235;28;20246;-64
2021/06/28 00:53:18;;;;;;;12.10;10.93;;;18.90;99.90;;;;;;5015578;28;20180;-64
2021/06/28 00:55:45;;;;;;;11.17;10.17;;;18.80;99.90;;;;;;5011073;28;20196;-65
2021/06/28 00:58:11;;;;;;;11.63;10.53;;;18.70;99.90;;;;;;5011345;28;20188;-64
2021/06/28 01:00:37;;;;;;;11.37;10.40;;;18.70;99.90;;;;;;5012001;28;20168;-64
2021/06/28 01:03:04;;;;;;;12.43;11.17;;;18.70;99.90;;;;;;5015125;28;20176;-64
2021/06/28 01:05:33;;;;;;;11.50;10.50;;;18.70;99.90;;;;;;5015312;28;20578;-65
2021/06/28 01:07:59;;;;;;;12.20;11.20;;;18.70;99.90;;;;;;5014693;28;20760;-65
2021/06/28 01:10:26;;;;;;;11.17;10.27;;;18.70;99.90;;;;;;5015277;28;20176;-66
2021/06/28 01:12:52;;;;;;;11.27;10.17;;;18.70;99.90;;;;;;5014170;28;20513;-66
2021/06/28 01:15:19;;;;;;;12.67;11.47;;;18.60;99.90;;;;;;5023905;28;20259;-66
2021/06/28 01:17:46;;;;;;;12.43;11.23;;;18.60;99.90;;;;;;5033684;28;20242;-65
2021/06/28 01:20:15;;;;;;;12.63;11.30;;;18.60;99.90;;;;;;5018325;28;20172;-65
2021/06/28 01:22:44;;;;;;;13.43;12.13;;;18.60;99.90;;;;;;5033578;28;20262;-65
2021/06/28 01:25:15;;;;;;;13.17;11.87;;;18.60;99.90;;;;;;5028529;28;20661;-64
2021/06/28 01:27:41;;;;;;;13.93;12.43;;;18.70;99.90;;;;;;5014501;28;20188;-66
2021/06/28 01:30:10;;;;;;;14.03;12.77;;;18.70;99.90;;;;;;5014737;28;20371;-65
2021/06/28 01:32:37;;;;;;;13.23;12.03;;;18.80;99.90;;;;;;5014598;28;20176;-66
2021/06/28 01:35:04;;;;;;;13.60;12.30;;;18.70;99.90;;;;;;5014930;28;20195;-66
2021/06/28 01:37:30;;;;;;;13.50;12.30;;;18.70;99.90;;;;;;5021322;28;20271;-65
2021/06/28 01:39:58;;;;;;;12.40;11.30;;;18.70;99.90;;;;;;5034248;28;20632;-65
2021/06/28 01:42:25;;;;;;;13.87;11.70;;;18.60;99.90;;;;;;5034175;28;20176;-65
2021/06/28 01:44:51;;;;;;;11.93;10.83;;;18.50;99.90;;;;;;5034354;28;20167;-64
2021/06/28 01:47:18;;;;;;;12.93;11.07;;;18.50;99.90;;;;;;5033844;28;20291;-65
2021/06/28 01:49:45;;;;;;;13.10;11.90;;;18.50;99.90;;;;;;5033750;28;20325;-65
2021/06/28 01:52:10;;;;;;;12.77;11.57;;;18.40;99.90;;;;;;5034069;28;20172;-64
2021/06/28 01:54:38;;;;;;;12.37;11.20;;;18.40;99.90;;;;;;5033953;28;20179;-65
2021/06/28 01:57:04;;;;;;;12.73;11.23;;;18.40;99.90;;;;;;5033645;28;20389;-64
2021/06/28 01:59:32;;;;;;;11.67;10.57;;;18.20;99.90;;;;;;5033739;28;20171;-65
2021/06/28 02:01:59;;;;;;;11.53;10.57;;;18.10;99.90;;;;;;5033722;28;20641;-64
2021/06/28 02:04:26;;;;;;;11.63;10.57;;;18.00;99.90;;;;;;5033683;28;20511;-65
2021/06/28 02:06:53;;;;;;;12.50;11.20;;;18.00;99.90;;;;;;5033631;28;20167;-65
2021/06/28 02:09:19;;;;;;;14.57;11.17;;;18.00;99.90;;;;;;5033514;28;20207;-64
2021/06/28 02:11:45;;;;;;;16.37;12.90;;;17.90;99.90;;;;;;5033419;28;20897;-64
2021/06/28 02:14:11;;;;;;;14.17;12.60;;;17.90;99.90;;;;;;5024876;28;20585;-65
2021/06/28 02:16:37;;;;;;;18.13;13.43;;;17.90;99.90;;;;;;5013448;28;20250;-64
2021/06/28 02:19:03;;;;;;;15.73;12.87;;;17.90;99.90;;;;;;5013677;28;20254;-65
2021/06/28 02:21:29;;;;;;;15.07;13.50;;;17.90;99.90;;;;;;5013518;28;20168;-65
2021/06/28 02:23:54;;;;;;;14.83;12.63;;;17.80;99.90;;;;;;5013555;28;20207;-66
2021/06/28 02:26:20;;;;;;;16.67;15.23;;;17.80;99.90;;;;;;5013312;28;20237;-64
2021/06/28 02:28:48;;;;;;;14.90;13.40;;;17.90;99.90;;;;;;5013534;28;20215;-65
2021/06/28 02:31:20;;;;;;;14.53;13.10;;;17.90;99.90;;;;;;5013570;28;20183;-65
2021/06/28 02:33:46;;;;;;;15.60;13.17;;;17.90;99.90;;;;;;5013460;28;20177;-65
2021/06/28 02:36:12;;;;;;;13.93;12.53;;;17.90;99.90;;;;;;5013004;28;20207;-65
2021/06/28 02:38:39;;;;;;;15.30;13.13;;;17.90;99.90;;;;;;5013280;28;20192;-65
2021/06/28 02:41:07;;;;;;;13.47;12.10;;;17.90;99.90;;;;;;5013447;28;20225;-65
2021/06/28 02:43:33;;;;;;;15.57;12.90;;;17.80;99.90;;;;;;5013174;28;20806;-65
2021/06/28 02:45:59;;;;;;;15.97;14.27;;;17.80;99.90;;;;;;5013007;28;20255;-65
2021/06/28 02:48:24;;;;;;;14.20;12.80;;;17.80;99.90;;;;;;5012967;28;20212;-64
2021/06/28 02:50:51;;;;;;;15.20;13.57;;;17.80;99.90;;;;;;5013179;28;20543;-64
2021/06/28 02:53:17;;;;;;;14.93;13.47;;;17.80;99.90;;;;;;5013256;28;20185;-64
2021/06/28 02:55:48;;;;;;;14.47;13.07;;;17.80;99.90;;;;;;5012750;28;20240;-65
2021/06/28 02:58:15;;;;;;;14.53;12.83;;;17.80;99.90;;;;;;5012838;28;20267;-64
2021/06/28 03:00:41;;;;;;;14.40;13.00;;;17.70;99.90;;;;;;5013010;28;20173;-64
2021/06/28 03:03:09;;;;;;;13.83;12.53;;;17.70;99.90;;;;;;5013103;28;20250;-65
2021/06/28 03:05:35;;;;;;;14.33;12.23;;;17.70;99.90;;;;;;5012875;28;20180;-65
2021/06/28 03:08:05;;;;;;;13.83;12.47;;;17.70;99.90;;;;;;5012661;28;20585;-64
2021/06/28 03:10:32;;;;;;;13.40;12.10;;;17.70;99.90;;;;;;5012663;28;20705;-64
2021/06/28 03:12:57;;;;;;;13.80;12.50;;;17.60;99.90;;;;;;5012929;28;20215;-64
2021/06/28 03:15:23;;;;;;;15.73;12.67;;;17.60;99.90;;;;;;5030942;28;20238;-64
2021/06/28 03:17:49;;;;;;;14.30;12.90;;;17.70;99.90;;;;;;5032052;28;20615;-64
2021/06/28 03:20:16;;;;;;;12.93;11.80;;;17.70;99.90;;;;;;5032175;28;20254;-65
2021/06/28 03:22:43;;;;;;;14.17;12.10;;;17.70;99.90;;;;;;5032257;28;20179;-65
2021/06/28 03:25:11;;;;;;;13.60;12.30;;;17.60;99.90;;;;;;5031810;28;20537;-64
2021/06/28 03:27:37;;;;;;;13.20;11.80;;;17.60;99.90;;;;;;5031859;28;20242;-64
2021/06/28 03:30:05;;;;;;;15.40;12.83;;;17.60;99.90;;;;;;5032098;28;20271;-64
2021/06/28 03:32:30;;;;;;;15.13;13.77;;;17.60;99.90;;;;;;5031913;28;20184;-65
2021/06/28 03:34:56;;;;;;;13.70;12.07;;;17.60;99.90;;;;;;5032157;28;20175;-65
2021/06/28 03:37:22;;;;;;;12.30;11.03;;;17.70;99.90;;;;;;5031574;28;20203;-65
2021/06/28 03:39:47;;;;;;;13.67;12.10;;;17.70;99.90;;;;;;5032063;28;20179;-64
2021/06/28 03:42:13;;;;;;;14.53;13.03;;;17.60;99.90;;;;;;5032061;28;20693;-64
2021/06/28 03:44:40;;;;;;;14.73;12.87;;;17.60;99.90;;;;;;5031924;28;20536;-66
2021/06/28 03:47:06;;;;;;;16.37;13.23;;;17.60;99.90;;;;;;5031610;28;20171;-64
2021/06/28 03:49:32;;;;;;;17.20;13.47;;;17.60;99.90;;;;;;5031682;28;20199;-65
2021/06/28 03:51:57;;;;;;;18.97;14.07;;;17.60;99.90;;;;;;5031824;28;20638;-65
2021/06/28 03:54:23;;;;;;;17.00;14.00;;;17.70;99.90;;;;;;5031748;28;20180;-65
2021/06/28 03:56:49;;;;;;;16.73;15.03;;;17.80;99.90;;;;;;5031583;28;20210;-65
2021/06/28 03:59:14;;;;;;;18.03;14.43;;;17.80;99.90;;;;;;5031654;28;20196;-64
2021/06/28 04:01:40;;;;;;;22.63;18.53;;;17.90;99.90;;;;;;5031734;28;20226;-64
2021/06/28 04:04:06;;;;;;;27.33;17.93;;;17.90;99.90;;;;;;5031527;28;20171;-64
2021/06/28 04:06:32;;;;;;;20.37;18.13;;;18.00;99.90;;;;;;5031387;28;20705;-65
2021/06/28 04:08:58;;;;;;;23.53;18.43;;;18.10;99.90;;;;;;5030251;28;20195;-65
2021/06/28 04:11:23;;;;;;;21.70;17.90;;;18.20;99.90;;;;;;5031462;28;20180;-65
2021/06/28 04:13:49;;;;;;;24.13;19.60;;;18.30;99.90;;;;;;5026074;28;20188;-66
2021/06/28 04:16:15;;;;;;;23.07;18.47;;;18.40;99.90;;;;;;5011489;28;20208;-66
2021/06/28 04:18:40;;;;;;;25.60;19.23;;;18.50;99.90;;;;;;5011768;28;20282;-66
2021/06/28 04:21:07;;;;;;;23.47;18.90;;;18.60;99.90;;;;;;5012054;28;20733;-66
2021/06/28 04:23:32;;;;;;;19.93;17.37;;;18.70;99.90;;;;;;5011709;28;20215;-66
2021/06/28 04:25:58;;;;;;;22.70;17.57;;;18.90;99.90;;;;;;5011510;28;20253;-65
2021/06/28 04:28:24;;;;;;;20.93;16.93;;;18.90;99.90;;;;;;5011800;28;20196;-65
2021/06/28 04:30:50;;;;;;;23.97;18.70;;;19.00;99.90;;;;;;5012465;28;20184;-64
2021/06/28 04:33:15;;;;;;;20.03;17.83;;;19.20;99.90;;;;;;5012341;28;20215;-67
2021/06/28 04:35:41;;;;;;;22.10;18.67;;;19.40;99.90;;;;;;5013979;28;20210;-65
2021/06/28 04:38:07;;;;;;;22.17;17.33;;;19.60;99.90;;;;;;5015362;28;20203;-64
2021/06/28 04:40:32;;;;;;;19.77;16.53;;;19.70;99.90;;;;;;5015553;28;20180;-66
2021/06/28 04:42:59;;;;;;;24.03;20.07;;;19.90;99.90;;;;;;5015652;28;20172;-66
2021/06/28 04:45:26;;;;;;;18.43;16.40;;;20.10;99.90;;;;;;5015494;28;20176;-65
2021/06/28 04:47:52;;;;;;;19.63;15.90;;;20.40;99.90;;;;;;5015085;28;20665;-65
2021/06/28 04:50:21;;;;;;;20.85;16.17;;;20.60;99.90;;;;;;5015370;28;20222;-64
2021/06/28 04:52:47;;;;;;;17.53;15.63;;;20.80;99.90;;;;;;5015461;28;20222;-65
2021/06/28 04:55:14;;;;;;;17.38;15.27;;;21.00;99.90;;;;;;5015331;28;20177;-65
2021/06/28 04:57:41;;;;;;;16.83;15.25;;;21.10;99.90;;;;;;5014895;28;20196;-65
2021/06/28 05:00:09;;;;;;;15.95;13.75;;;21.20;99.90;;;;;;5015032;28;20252;-65
2021/06/28 05:02:35;;;;;;;15.10;13.60;;;21.20;99.90;;;;;;5015258;28;20596;-65
2021/06/28 05:05:03;;;;;;;16.33;13.83;;;20.80;99.90;;;;;;5015207;28;20195;-65
2021/06/28 05:07:28;;;;;;;16.52;14.93;;;20.90;99.90;;;;;;5014716;28;20307;-64
2021/06/28 05:09:54;;;;;;;15.63;13.93;;;20.90;99.90;;;;;;5015110;28;20255;-64
2021/06/28 05:12:20;;;;;;;15.43;14.00;;;21.10;99.90;;;;;;5014843;28;20176;-65
2021/06/28 05:14:46;;;;;;;15.43;13.85;;;21.10;99.90;;;;;;5028348;28;20233;-65
2021/06/28 05:17:12;;;;;;;13.95;12.48;;;21.00;99.90;;;;;;5034259;28;20219;-65
2021/06/28 05:19:37;;;;;;;14.88;13.07;;;21.00;99.90;;;;;;5034557;28;20672;-65
2021/06/28 05:22:03;;;;;;;15.73;14.02;;;21.00;99.90;;;;;;5034528;28;20202;-65
2021/06/28 05:24:29;;;;;;;16.35;14.45;;;21.00;99.90;;;;;;5034542;28;20259;-65
2021/06/28 05:26:55;;;;;;;16.65;14.95;;;20.80;99.90;;;;;;5034312;28;20229;-64
2021/06/28 05:29:20;;;;;;;17.47;15.53;;;20.80;99.90;;;;;;5034277;28;20195;-65
2021/06/28 05:31:46;;;;;;;16.87;14.73;;;20.90;99.90;;;;;;5034472;28;20254;-65
2021/06/28 05:34:12;;;;;;;20.58;16.00;;;21.00;99.90;;;;;;5034207;28;20171;-65
2021/06/28 05:36:38;;;;;;;17.98;16.00;;;21.00;99.90;;;;;;5034142;28;20199;-65
2021/06/28 05:39:05;;;;;;;18.52;15.40;;;21.00;99.90;;;;;;5034219;28;20205;-64
2021/06/28 05:41:31;;;;;;;17.27;15.38;;;21.00;99.90;;;;;;5034087;28;20183;-65
2021/06/28 05:43:57;;;;;;;17.08;15.38;;;21.00;99.90;;;;;;5034353;28;20229;-65
2021/06/28 05:46:22;;;;;;;17.52;15.73;;;21.10;99.90;;;;;;5033228;28;20264;-65
2021/06/28 05:48:48;;;;;;;17.80;15.93;;;21.10;99.90;;;;;;5033844;28;20210;-65
2021/06/28 05:51:17;;;;;;;19.40;16.95;;;21.30;99.90;;;;;;5034161;28;20183;-65
2021/06/28 05:53:43;;;;;;;19.40;17.33;;;21.60;99.90;;;;;;5034097;28;20227;-64
2021/06/28 05:56:09;;;;;;;18.63;15.82;;;21.80;99.90;;;;;;5033528;28;20564;-65
2021/06/28 05:58:35;;;;;;;21.02;16.83;;;22.00;99.90;;;;;;5033828;28;20190;-64
2021/06/28 06:01:01;;;;;;;17.88;15.95;;;22.10;99.90;;;;;;5033886;28;20168;-65
2021/06/28 06:03:27;;;;;;;17.48;15.38;;;22.30;99.90;;;;;;5033773;28;20171;-65
2021/06/28 06:05:53;;;;;;;16.08;14.10;;;22.50;99.90;;;;;;5033541;28;20559;-65
2021/06/28 06:08:26;;;;;;;16.42;14.77;;;22.50;99.90;;;;;;5033613;28;20245;-65
2021/06/28 06:10:59;;;;;;;17.02;15.23;;;22.70;99.90;;;;;;5033664;28;20565;-65
2021/06/28 06:13:26;;;;;;;18.58;16.80;;;22.70;99.90;;;;;;5031170;28;20222;-65
2021/06/28 06:15:53;;;;;;;16.92;15.23;;;22.50;99.90;;;;;;5013511;28;20212;-65
2021/06/28 06:18:18;;;;;;;19.33;15.05;;;22.50;99.90;;;;;;5013569;28;20234;-65
2021/06/28 06:20:45;;;;;;;17.70;14.50;;;22.60;99.90;;;;;;5013807;28;20172;-65
2021/06/28 06:23:11;;;;;;;16.70;15.00;;;22.60;99.90;;;;;;5013353;28;20183;-64
2021/06/28 06:25:38;;;;;;;16.23;14.55;;;22.60;99.90;;;;;;5013664;28;20235;-65
2021/06/28 06:28:04;;;;;;;16.58;14.88;;;22.60;99.90;;;;;;5012085;28;20685;-65
2021/06/28 06:30:30;;;;;;;17.02;15.23;;;22.70;99.90;;;;;;5013243;28;20211;-66
2021/06/28 06:32:56;;;;;;;16.33;14.75;;;22.90;99.90;;;;;;5013661;28;20288;-64
2021/06/28 06:35:21;;;;;;;18.20;16.30;;;22.90;99.90;;;;;;5013368;28;20176;-64
2021/06/28 06:37:49;;;;;;;19.15;15.35;;;22.90;99.90;;;;;;5013182;28;20219;-64
2021/06/28 06:40:15;;;;;;;18.40;16.55;;;23.00;99.90;;;;;;5013272;28;20188;-65
2021/06/28 06:42:41;;;;;;;20.10;15.40;;;23.40;99.90;;;;;;5013490;28;20208;-64
2021/06/28 06:45:07;;;;;;;17.92;16.02;;;23.90;99.90;;;;;;5013178;28;20556;-65
2021/06/28 06:47:33;;;;;;;18.48;15.98;;;24.40;99.90;;;;;;5012864;28;20195;-65
2021/06/28 06:49:59;;;;;;;15.73;14.15;;;24.80;99.90;;;;;;5013182;28;20246;-64
2021/06/28 06:52:24;;;;;;;18.70;15.18;;;25.30;99.90;;;;;;5013118;28;20590;-66
2021/06/28 06:54:50;;;;;;;15.10;13.52;;;26.00;99.90;;;;;;5013271;28;20701;-66
2021/06/28 06:57:15;;;;;;;16.08;14.57;;;26.70;99.90;;;;;;5012708;28;20546;-66
2021/06/28 06:59:41;;;;;;;17.73;13.63;;;26.80;99.90;;;;;;5009966;28;20176;-67
2021/06/28 07:02:07;;;;;;;17.63;15.93;;;26.70;99.90;;;;;;5012900;28;20176;-66
2021/06/28 07:04:33;;;;;;;16.63;14.93;;;26.40;99.90;;;;;;5012913;28;20172;-67
2021/06/28 07:07:02;;;;;;;19.55;17.75;;;26.10;99.90;;;;;;5012627;28;20180;-66
2021/06/28 07:09:28;;;;;;;16.83;15.02;;;25.90;99.90;;;;;;5012890;28;20176;-67
2021/06/28 07:11:55;;;;;;;19.65;17.58;;;25.90;99.90;;;;;;5012715;28;20180;-64
2021/06/28 07:14:21;;;;;;;19.65;17.55;;;25.90;99.90;;;;;;5022272;28;20189;-66
2021/06/28 07:16:47;;;;;;;20.95;16.88;;;25.60;99.90;;;;;;5032151;28;20282;-67
2021/06/28 07:19:13;;;;;;;20.48;17.90;;;25.40;99.90;;;;;;5031339;28;20241;-66
2021/06/28 07:21:39;;;;;;;19.08;16.90;;;25.30;99.90;;;;;;5032433;28;20175;-65
2021/06/28 07:24:06;;;;;;;19.85;17.80;;;25.20;99.90;;;;;;5031363;28;20683;-66
2021/06/28 07:26:32;;;;;;;19.38;17.48;;;25.00;99.90;;;;;;5031957;28;20258;-67
2021/06/28 07:28:58;;;;;;;16.25;14.60;;;24.90;99.90;;;;;;5030654;28;20199;-66
2021/06/28 07:31:24;;;;;;;17.77;16.08;;;25.40;99.90;;;;;;5032069;28;20174;-66
2021/06/28 07:33:50;;;;;;;17.80;16.00;;;25.90;99.90;;;;;;5032121;28;20245;-66
2021/06/28 07:36:16;;;;;;;15.52;14.13;;;26.60;99.90;;;;;;5031792;28;20218;-66
2021/06/28 07:38:42;;;;;;;15.95;14.48;;;27.00;99.90;;;;;;5032087;28;20195;-67
2021/06/28 07:41:08;;;;;;;14.95;13.68;;;27.20;99.90;;;;;;5032056;28;20225;-66
2021/06/28 07:43:34;;;;;;;13.90;12.50;;;27.40;99.90;;;;;;5031936;28;20163;-66
2021/06/28 07:46:01;;;;;;;16.17;14.65;;;27.80;99.90;;;;;;5031695;28;20213;-67
2021/06/28 07:48:27;;;;;;;13.35;12.25;;;28.30;99.90;;;;;;5031624;28;20207;-66
2021/06/28 07:50:52;;;;;;;13.57;12.32;;;28.60;99.90;;;;;;5031938;28;20172;-66
2021/06/28 07:53:18;;;;;;;16.98;12.57;;;28.60;99.90;;;;;;5031947;28;20546;-67
2021/06/28 07:55:45;;;;;;;12.25;11.20;;;28.80;99.90;;;;;;5031587;28;20742;-65
2021/06/28 07:58:11;;;;;;;13.82;12.52;;;28.90;99.90;;;;;;5017170;28;20204;-66
2021/06/28 08:00:37;;;;;;;11.70;10.68;;;29.10;99.90;;;;;;5011810;28;20544;-67
2021/06/28 08:03:05;;;;;;;10.68;9.77;;;29.60;99.90;;;;;;5011724;28;20180;-66
2021/06/28 08:05:31;;;;;;;11.25;10.13;;;30.00;99.90;;;;;;5012050;28;20194;-66
2021/06/28 08:07:57;;;;;;;12.43;10.75;;;30.30;99.90;;;;;;5011636;28;20195;-66
2021/06/28 08:10:22;;;;;;;10.18;9.25;;;30.70;99.90;;;;;;5011552;28;20222;-66
2021/06/28 08:12:49;;;;;;;10.32;9.43;;;31.00;99.90;;;;;;5011084;28;20160;-65
2021/06/28 08:15:17;;;;;;;10.60;9.60;;;30.80;99.90;;;;;;5011865;28;20642;-66
2021/06/28 08:17:43;;;;;;;14.52;13.40;;;30.70;99.90;;;;;;5011471;28;20245;-65
2021/06/28 08:20:09;;;;;;;9.82;9.02;;;30.40;99.90;;;;;;5011834;28;20172;-65
2021/06/28 08:22:36;;;;;;;11.80;10.77;;;30.10;99.90;;;;;;5011733;28;20168;-66
2021/06/28 08:25:04;;;;;;;10.65;9.85;;;29.70;99.90;;;;;;5011767;28;20172;-66
2021/06/28 08:27:30;;;;;;;9.73;9.02;;;29.30;99.90;;;;;;5011358;28;20200;-67
2021/06/28 08:29:55;;;;;;;10.38;9.57;;;29.30;99.90;;;;;;5011839;28;20168;-66
2021/06/28 08:32:21;;;;;;;10.27;9.48;;;29.30;99.90;;;;;;5011636;28;20630;-65
2021/06/28 08:34:47;;;;;;;9.80;9.05;;;29.80;99.90;;;;;;5011760;28;20176;-66
2021/06/28 08:37:13;;;;;;;8.93;8.23;;;30.40;99.90;;;;;;5011344;28;20226;-65
2021/06/28 08:39:38;;;;;;;10.10;9.30;;;31.00;99.90;;;;;;5011681;28;20534;-67
2021/06/28 08:42:07;;;;;;;10.80;9.80;;;31.60;99.90;;;;;;5011559;28;20168;-66
2021/06/28 08:44:33;;;;;;;10.27;9.57;;;32.00;99.90;;;;;;5011549;28;20195;-65
2021/06/28 08:47:00;;;;;;;9.63;8.90;;;32.50;99.90;;;;;;5010901;28;20183;-66
2021/06/28 08:49:27;;;;;;;8.52;7.75;;;32.50;99.90;;;;;;5011050;28;20567;-67
2021/06/28 08:51:53;;;;;;;8.45;7.85;;;32.40;99.90;;;;;;5011603;28;20728;-66
2021/06/28 08:54:18;;;;;;;9.82;9.13;;;32.70;99.90;;;;;;5011315;28;20255;-67
2021/06/28 08:56:46;;;;;;;9.70;8.95;;;33.00;99.90;;;;;;5011008;28;20211;-66
2021/06/28 08:59:12;;;;;;;9.32;8.63;;;32.90;99.90;;;;;;4990595;28;20204;-65
2021/06/28 09:01:39;;;;;;;9.52;8.82;;;32.80;99.90;;;;;;4990989;28;20172;-66
2021/06/28 09:04:06;;;;;;;9.00;8.13;;;32.70;99.90;;;;;;5010459;28;20184;-66
2021/06/28 09:06:32;;;;;;;9.18;8.27;;;32.90;99.90;;;;;;5010969;28;20526;-66
2021/06/28 09:08:59;;;;;;;9.27;8.60;;;33.00;99.90;;;;;;5011431;28;20200;-65
2021/06/28 09:11:25;;;;;;;9.70;9.00;;;33.20;99.90;;;;;;5010980;28;20184;-66
2021/06/28 09:13:55;;;;;;;10.10;9.50;;;33.10;99.90;;;;;;5011448;28;20247;-67
2021/06/28 09:16:21;;;;;;;9.95;8.95;;;32.90;99.90;;;;;;5010592;28;20641;-66
2021/06/28 09:19:03;;;;;;;8.93;8.25;;;32.50;99.90;;;;;;5011276;28;20267;-66
2021/06/28 09:21:40;;;;;;;8.05;7.47;;;31.80;99.90;;;;;;5011414;28;20172;-66
2021/06/28 09:24:36;;;;;;;7.63;7.13;;;31.10;99.90;;;;;;5014126;28;20175;-65
2021/06/28 09:27:11;;;;;;;7.82;7.10;;;30.20;99.90;;;;;;5013035;28;20203;-66
2021/06/28 09:29:40;;;;;;;8.13;7.35;;;29.90;99.90;;;;;;5014780;28;20234;-66
2021/06/28 09:32:11;;;;;;;7.00;6.47;;;29.80;99.90;;;;;;5014940;28;20195;-64
2021/06/28 09:34:37;;;;;;;7.53;6.93;;;29.80;99.90;;;;;;5014574;28;20187;-64
2021/06/28 09:37:04;;;;;;;7.82;7.22;;;29.80;99.90;;;;;;5014133;28;20274;-64
2021/06/28 09:39:32;;;;;;;7.32;6.78;;;29.60;99.90;;;;;;5014293;28;20183;-65
2021/06/28 09:42:21;;;;;;;8.10;7.40;;;29.50;99.90;;;;;;5014514;28;20176;-64
2021/06/28 09:45:00;;;;;;;8.40;7.70;;;29.40;99.90;;;;;;5012825;28;20633;-65
2021/06/28 09:47:28;;;;;;;8.98;8.27;;;29.10;99.90;;;;;;5014208;28;20187;-64
2021/06/28 09:50:09;;;;;;;9.20;8.30;;;28.80;99.90;;;;;;5013634;28;20195;-64
2021/06/28 09:52:50;;;;;;;8.65;8.00;;;28.50;99.90;;;;;;5014469;28;20836;-64
2021/06/28 09:55:31;;;;;;;9.85;9.05;;;28.20;99.90;;;;;;5014165;28;20191;-64
2021/06/28 09:58:09;;;;;;;9.73;9.00;;;28.10;99.90;;;;;;5014108;28;20331;-65
2021/06/28 10:00:56;;;;;;;10.75;10.02;;;28.10;99.90;;;;;;4994547;28;20176;-65
2021/06/28 10:03:28;;;;;;;10.02;9.30;;;28.40;99.90;;;;;;4997156;28;20195;-65
2021/06/28 10:08:36;;;;;;;21.73;11.32;;;29.00;99.90;;;;;;5013556;28;20215;-65
2021/06/28 10:11:15;;;;;;;9.15;8.43;;;29.20;99.90;;;;;;5014050;28;20187;-65
2021/06/28 10:13:42;;;;;;;11.20;9.18;;;29.30;99.90;;;;;;5013758;28;20208;-64
2021/06/28 10:16:08;;;;;;;10.25;9.45;;;29.30;99.90;;;;;;5013696;28;20208;-65
2021/06/28 10:18:34;;;;;;;9.82;9.07;;;29.50;99.90;;;;;;5013526;28;20733;-65
2021/06/28 10:21:00;;;;;;;9.70;8.98;;;29.80;99.90;;;;;;5013962;28;20176;-65
2021/06/28 10:23:26;;;;;;;9.55;8.80;;;29.90;99.90;;;;;;5013458;28;20171;-66
2021/06/28 10:25:52;;;;;;;11.23;10.23;;;29.80;99.90;;;;;;5012717;28;20173;-65
2021/06/28 10:28:19;;;;;;;14.13;12.82;;;29.80;99.90;;;;;;5013542;28;20196;-66
2021/06/28 10:30:45;;;;;;;15.20;13.63;;;29.50;99.90;;;;;;5013268;28;20264;-65
2021/06/28 10:33:14;;;;;;;14.02;12.55;;;29.30;99.90;;;;;;5013518;28;20251;-65
2021/06/28 10:35:42;;;;;;;12.40;11.20;;;29.30;99.90;;;;;;5012966;28;20291;-66
2021/06/28 10:38:10;;;;;;;15.90;14.55;;;29.00;99.90;;;;;;5013469;28;20626;-65
2021/06/28 10:40:47;;;;;;;15.32;14.02;;;28.60;99.90;;;;;;5012156;28;20172;-64
2021/06/28 10:43:33;;;;;;;14.07;12.75;;;28.10;99.90;;;;;;5013425;28;20168;-65
2021/06/28 10:46:05;;;;;;;13.48;12.18;;;27.90;99.90;;;;;;5012263;28;20176;-65
2021/06/28 10:48:47;;;;;;;12.15;11.05;;;27.60;99.90;;;;;;5012574;28;20243;-65
2021/06/28 10:51:15;;;;;;;12.30;11.13;;;26.80;99.90;;;;;;4993848;28;20185;-65
2021/06/28 10:53:41;;;;;;;12.40;11.02;;;26.40;99.90;;;;;;4997169;28;20623;-64
2021/06/28 10:59:04;;;;;;;12.43;11.32;;;26.10;99.90;;;;;;5003679;28;20200;-64
2021/06/28 11:01:40;;;;;;;13.15;12.02;;;26.30;99.90;;;;;;5012923;28;20181;-64
2021/06/28 11:04:16;;;;;;;11.85;10.73;;;26.60;99.90;;;;;;5012595;28;20222;-65
2021/06/28 11:07:06;;;;;;;11.55;10.45;;;27.20;99.90;;;;;;5012840;28;20183;-65
2021/06/28 11:09:39;;;;;;;11.88;10.77;;;27.60;99.90;;;;;;5009886;28;20258;-65
2021/06/28 11:12:24;;;;;;;11.88;10.75;;;27.80;99.90;;;;;;5012965;28;20179;-65
2021/06/28 11:14:55;;;;;;;14.35;13.18;;;28.30;99.90;;;;;;5012663;28;20234;-65
2021/06/28 11:17:45;;;;;;;10.90;10.00;;;29.10;99.90;;;;;;5012316;28;20204;-65
2021/06/28 11:20:39;;;;;;;10.00;9.07;;;29.50;99.90;;;;;;5012695;28;20208;-65
2021/06/28 11:23:06;;;;;;;11.35;10.25;;;29.90;99.90;;;;;;5012694;28;20175;-65
2021/06/28 11:25:48;;;;;;;11.30;10.50;;;30.20;99.90;;;;;;5012263;28;20184;-65
2021/06/28 11:28:20;;;;;;;11.00;10.00;;;30.30;99.90;;;;;;5012452;28;20188;-65
2021/06/28 11:30:59;;;;;;;11.57;10.57;;;30.30;99.90;;;;;;4992761;28;20619;-65
2021/06/28 11:33:32;;;;;;;10.35;9.50;;;30.70;99.90;;;;;;4993174;28;20173;-65
2021/06/28 11:35:57;;;;;;;11.05;10.18;;;31.20;99.90;;;;;;5012199;28;20208;-66
2021/06/28 11:38:37;;;;;;;9.32;8.55;;;32.20;99.90;;;;;;5012047;28;20184;-65
2021/06/28 11:41:15;;;;;;;8.75;7.95;;;33.00;99.90;;;;;;4992774;28;20539;-66
2021/06/28 11:43:50;;;;;;;8.40;7.70;;;33.80;99.90;;;;;;4994316;28;20177;-67
2021/06/28 11:46:18;;;;;;;8.55;7.85;;;34.30;99.90;;;;;;5011571;28;20181;-66
2021/06/28 11:48:50;;;;;;;8.57;7.85;;;34.70;99.90;;;;;;5011627;28;20216;-65
2021/06/28 11:51:23;;;;;;;8.52;7.75;;;35.10;99.90;;;;;;5012164;28;20176;-67
2021/06/28 11:54:02;;;;;;;7.55;6.80;;;35.20;99.90;;;;;;5011867;28;20168;-66
2021/06/28 11:56:38;;;;;;;7.43;6.88;;;34.90;99.90;;;;;;5010765;28;20208;-67
2021/06/28 11:59:09;;;;;;;7.63;7.13;;;34.60;99.90;;;;;;5010358;28;20736;-65
2021/06/28 12:01:40;;;;;;;7.65;7.15;;;34.30;99.90;;;;;;5011956;28;20184;-66
2021/06/28 12:04:08;;;;;;;7.68;7.07;;;34.30;99.90;;;;;;5011763;28;20587;-65
2021/06/28 12:06:38;;;;;;;6.95;6.55;;;34.20;99.90;;;;;;5011281;28;20184;-65
2021/06/28 12:09:18;;;;;;;5.50;5.10;;;34.50;99.90;;;;;;5011419;28;20206;-65
2021/06/28 12:11:54;;;;;;;6.88;6.28;;;34.80;99.90;;;;;;5011872;28;20179;-65
2021/06/28 12:14:31;;;;;;;5.65;5.25;;;34.80;99.90;;;;;;5011358;28;20195;-65
2021/06/28 12:16:58;;;;;;;5.97;5.60;;;34.80;99.90;;;;;;5011462;28;20202;-65
2021/06/28 12:19:24;;;;;;;5.50;5.10;;;34.90;99.90;;;;;;5011177;28;20626;-65
2021/06/28 12:21:50;;;;;;;5.47;5.07;;;34.90;99.90;;;;;;5011777;28;20259;-64
2021/06/28 12:24:18;;;;;;;6.63;6.10;;;34.90;99.90;;;;;;5010480;28;20199;-65
2021/06/28 12:27:06;;;;;;;6.63;6.13;;;34.50;99.90;;;;;;5011294;28;20274;-65
2021/06/28 12:29:40;;;;;;;5.47;5.10;;;34.60;99.90;;;;;;5011247;28;20237;-65
2021/06/28 12:32:08;;;;;;;5.68;5.35;;;34.80;99.90;;;;;;5011678;28;20179;-65
2021/06/28 12:34:34;;;;;;;5.53;5.22;;;35.00;99.90;;;;;;5018010;28;20199;-65
2021/06/28 12:37:00;;;;;;;6.03;5.53;;;35.50;99.90;;;;;;5030954;28;20203;-65
2021/06/28 12:39:28;;;;;;;5.32;4.93;;;35.90;99.90;;;;;;5015582;28;20222;-65
2021/06/28 12:42:08;;;;;;;5.30;4.97;;;36.00;99.90;;;;;;5011382;28;20640;-65